createdAt,value
2022-10-15T00:00:43.843Z,1010.70
2022-10-15T00:00:57.563Z,1010.90
2022-10-15T00:01:28.668Z,1010.90
2022-10-15T00:01:59.020Z,1011.00
2022-10-15T00:02:30.424Z,1011.00
2022-10-15T00:03:04.070Z,1010.90
2022-10-15T00:03:34.172Z,1010.90
2022-10-15T00:04:04.300Z,1010.80
2022-10-15T00:04:35.277Z,1010.80
2022-10-15T00:05:07.463Z,1010.80
2022-10-15T00:05:36.790Z,1010.80
2022-10-15T00:06:24.735Z,1010.80
2022-10-15T00:06:38.900Z,1010.80
2022-10-15T00:07:09.340Z,1010.80
2022-10-15T00:07:44.062Z,1010.80
2022-10-15T00:12:19.727Z,1010.70
2022-10-15T00:13:00.320Z,1010.70
2022-10-15T00:13:22.100Z,1010.70
2022-10-15T00:13:51.993Z,1010.70
2022-10-15T00:14:23.328Z,1010.70
2022-10-15T00:14:57.307Z,1010.70
2022-10-15T00:15:30.353Z,1010.70
2022-10-15T00:16:09.134Z,1010.60
2022-10-15T00:18:27.985Z,1010.60
2022-10-15T00:18:37.848Z,1010.80
2022-10-15T00:19:05.425Z,1010.80
2022-10-15T00:19:34.731Z,1010.80
2022-10-15T00:20:09.340Z,1010.90
2022-10-15T00:20:39.313Z,1010.90
2022-10-15T00:21:13.724Z,1010.80
2022-10-15T00:21:39.724Z,1010.80
2022-10-15T00:22:09.837Z,1010.70
2022-10-15T00:22:39.469Z,1010.70
2022-10-15T00:23:11.120Z,1010.70
2022-10-15T00:24:00.943Z,1010.80
2022-10-15T00:24:13.178Z,1010.80
2022-10-15T00:24:44.519Z,1010.80
2022-10-15T00:25:17.973Z,1010.70
2022-10-15T00:26:07.095Z,1010.70
2022-10-15T00:26:49.147Z,1010.80
2022-10-15T00:27:20.491Z,1010.90
2022-10-15T00:27:49.995Z,1010.70
2022-10-15T00:28:21.851Z,1010.70
2022-10-15T00:28:53.301Z,1010.80
2022-10-15T00:29:40.123Z,1010.80
2022-10-15T00:29:53.699Z,1010.70
2022-10-15T00:30:29.649Z,1010.70
2022-10-15T00:30:59.143Z,1010.80
2022-10-15T00:31:27.370Z,1010.80
2022-10-15T00:31:58.920Z,1010.70
2022-10-15T00:32:29.561Z,1010.70
2022-10-15T00:32:59.723Z,1010.80
2022-10-15T00:33:31.777Z,1010.80
2022-10-15T00:34:03.015Z,1010.80
2022-10-15T00:35:03.917Z,1010.90
2022-10-15T00:35:36.069Z,1010.90
2022-10-15T00:36:08.007Z,1010.80
2022-10-15T00:36:38.741Z,1010.80
2022-10-15T00:37:09.194Z,1010.80
2022-10-15T00:37:40.396Z,1010.80
2022-10-15T00:38:09.760Z,1010.80
2022-10-15T00:38:41.893Z,1010.80
2022-10-15T00:39:11.939Z,1010.80
2022-10-15T00:39:43.135Z,1010.80
2022-10-15T00:40:15.335Z,1010.70
2022-10-15T00:40:46.372Z,1010.70
2022-10-15T00:41:18.742Z,1010.80
2022-10-15T00:41:49.173Z,1010.80
2022-10-15T00:42:18.851Z,1010.90
2022-10-15T00:42:49.012Z,1010.90
2022-10-15T00:43:20.238Z,1010.80
2022-10-15T00:43:50.683Z,1010.80
2022-10-15T00:44:22.121Z,1010.80
2022-10-15T00:44:52.883Z,1010.70
2022-10-15T00:45:26.571Z,1010.70
2022-10-15T00:45:55.068Z,1010.80
2022-10-15T00:46:28.608Z,1010.80
2022-10-15T00:46:58.631Z,1010.90
2022-10-15T00:47:29.391Z,1010.90
2022-10-15T00:47:59.590Z,1010.70
2022-10-15T00:48:30.262Z,1010.70
2022-10-15T00:49:32.932Z,1010.80
2022-10-15T00:50:03.507Z,1010.80
2022-10-15T00:51:23.235Z,1010.70
2022-10-15T00:51:37.168Z,1010.70
2022-10-15T00:52:09.886Z,1010.70
2022-10-15T00:52:39.568Z,1010.70
2022-10-15T00:53:10.041Z,1010.80
2022-10-15T00:53:40.903Z,1010.80
2022-10-15T00:54:23.817Z,1010.60
2022-10-15T00:54:45.427Z,1010.60
2022-10-15T00:56:04.705Z,1010.60
2022-10-15T00:56:43.980Z,1010.90
2022-10-15T00:57:29.741Z,1010.60
2022-10-15T00:57:54.943Z,1010.60
2022-10-15T00:58:20.973Z,1010.60
2022-10-15T00:58:53.523Z,1010.60
2022-10-15T01:00:39.344Z,1010.60
2022-10-15T01:00:54.369Z,1010.70
2022-10-15T01:01:28.676Z,1010.70
2022-10-15T01:02:01.864Z,1010.50
2022-10-15T01:02:29.186Z,1010.50
2022-10-15T01:03:11.099Z,1010.80
2022-10-15T01:03:46.538Z,1010.80
2022-10-15T01:04:12.727Z,1010.50
2022-10-15T01:04:49.520Z,1010.50
2022-10-15T01:05:14.402Z,1010.40
2022-10-15T01:05:51.793Z,1010.40
2022-10-15T01:06:24.420Z,1010.60
2022-10-15T01:06:51.899Z,1010.60
2022-10-15T01:07:37.947Z,1010.60
2022-10-15T01:07:58.335Z,1010.50
2022-10-15T01:08:21.641Z,1010.50
2022-10-15T01:08:52.595Z,1010.70
2022-10-15T01:09:24.031Z,1010.70
2022-10-15T01:09:54.346Z,1010.50
2022-10-15T01:10:45.242Z,1010.50
2022-10-15T01:10:56.488Z,1010.70
2022-10-15T01:11:43.650Z,1010.70
2022-10-15T01:11:59.264Z,1010.80
2022-10-15T01:12:29.646Z,1010.80
2022-10-15T01:13:00.398Z,1010.60
2022-10-15T01:13:31.377Z,1010.60
2022-10-15T01:14:03.915Z,1010.60
2022-10-15T01:14:48.986Z,1010.60
2022-10-15T01:15:04.933Z,1010.60
2022-10-15T01:15:34.874Z,1010.60
2022-10-15T01:16:09.551Z,1010.40
2022-10-15T01:16:39.472Z,1010.40
2022-10-15T01:17:10.071Z,1010.70
2022-10-15T01:17:41.104Z,1010.70
2022-10-15T01:18:11.091Z,1010.80
2022-10-15T01:18:42.339Z,1010.80
2022-10-15T01:19:12.435Z,1010.50
2022-10-15T01:19:43.199Z,1010.50
2022-10-15T01:20:14.556Z,1010.70
2022-10-15T01:20:45.744Z,1010.70
2022-10-15T01:21:49.624Z,1010.29
2022-10-15T01:22:19.776Z,1010.29
2022-10-15T01:22:51.788Z,1010.29
2022-10-15T01:23:23.678Z,1010.50
2022-10-15T01:23:51.196Z,1010.40
2022-10-15T01:24:23.439Z,1010.40
2022-10-15T01:24:53.239Z,1010.60
2022-10-15T01:25:24.647Z,1010.60
2022-10-15T01:26:00.433Z,1010.70
2022-10-15T01:26:28.141Z,1010.70
2022-10-15T01:27:00.012Z,1010.70
2022-10-15T01:27:29.772Z,1010.70
2022-10-15T01:28:00.497Z,1010.60
2022-10-15T01:28:31.093Z,1010.60
2022-10-15T01:29:01.947Z,1010.60
2022-10-15T01:29:33.923Z,1010.60
2022-10-15T01:30:05.961Z,1010.60
2022-10-15T01:30:34.938Z,1010.60
2022-10-15T01:31:09.818Z,1010.50
2022-10-15T01:31:37.046Z,1010.50
2022-10-15T01:32:09.176Z,1010.50
2022-10-15T01:32:42.979Z,1010.50
2022-10-15T01:33:10.246Z,1010.50
2022-10-15T01:33:40.807Z,1010.50
2022-10-15T01:34:11.471Z,1010.40
2022-10-15T01:34:59.828Z,1010.40
2022-10-15T01:35:12.753Z,1010.40
2022-10-15T01:35:50.391Z,1010.40
2022-10-15T01:36:15.200Z,1010.40
2022-10-15T01:36:49.630Z,1010.40
2022-10-15T01:37:19.414Z,1010.40
2022-10-15T01:37:49.860Z,1010.40
2022-10-15T01:38:20.622Z,1010.50
2022-10-15T01:38:51.521Z,1010.60
2022-10-15T01:39:21.679Z,1010.60
2022-10-15T01:40:11.747Z,1010.50
2022-10-15T01:40:23.434Z,1010.50
2022-10-15T01:41:11.026Z,1010.50
2022-10-15T01:41:25.481Z,1010.50
2022-10-15T01:41:57.711Z,1010.29
2022-10-15T01:42:30.169Z,1010.29
2022-10-15T01:43:00.327Z,1010.40
2022-10-15T01:43:30.177Z,1010.40
2022-10-15T01:44:01.144Z,1010.40
2022-10-15T01:44:31.715Z,1010.40
2022-10-15T01:45:03.051Z,1010.40
2022-10-15T01:45:36.770Z,1010.40
2022-10-15T01:46:11.801Z,1010.50
2022-10-15T01:46:42.187Z,1010.50
2022-10-15T01:47:06.446Z,1010.40
2022-10-15T01:47:39.901Z,1010.40
2022-10-15T01:48:09.550Z,1010.09
2022-10-15T01:48:41.597Z,1010.09
2022-10-15T01:49:11.215Z,1010.09
2022-10-15T01:49:42.219Z,1010.09
2022-10-15T01:50:12.734Z,1010.40
2022-10-15T01:50:42.628Z,1010.40
2022-10-15T01:51:13.797Z,1010.40
2022-10-15T01:51:44.865Z,1010.40
2022-10-15T01:52:16.956Z,1010.40
2022-10-15T01:52:47.630Z,1010.40
2022-10-15T01:53:21.495Z,1010.40
2022-10-15T01:54:06.566Z,1010.09
2022-10-15T01:54:20.530Z,1010.09
2022-10-15T01:54:51.071Z,1010.29
2022-10-15T01:55:25.377Z,1010.29
2022-10-15T01:55:52.630Z,1010.40
2022-10-15T01:56:23.659Z,1010.40
2022-10-15T01:56:54.661Z,1010.29
2022-10-15T01:57:25.965Z,1010.29
2022-10-15T01:57:58.198Z,1010.40
2022-10-15T01:58:29.693Z,1010.40
2022-10-15T01:59:01.909Z,1010.50
2022-10-15T01:59:31.189Z,1010.50
2022-10-15T02:00:11.970Z,1010.09
2022-10-15T02:00:49.924Z,1010.09
2022-10-15T02:01:06.407Z,1010.29
2022-10-15T02:01:34.837Z,1010.29
2022-10-15T02:02:05.385Z,1010.40
2022-10-15T02:02:36.405Z,1010.40
2022-10-15T02:03:07.801Z,1010.40
2022-10-15T02:03:43.875Z,1010.40
2022-10-15T02:04:13.125Z,1010.09
2022-10-15T02:04:41.944Z,1010.09
2022-10-15T02:05:30.568Z,1010.29
2022-10-15T02:05:43.064Z,1010.29
2022-10-15T02:06:13.169Z,1010.19
2022-10-15T02:06:43.544Z,1010.19
2022-10-15T02:07:15.942Z,1010.19
2022-10-15T02:07:45.939Z,1010.19
2022-10-15T02:08:18.318Z,1010.19
2022-10-15T02:08:49.831Z,1010.19
2022-10-15T02:09:20.838Z,1010.09
2022-10-15T02:09:51.976Z,1010.19
2022-10-15T02:10:23.420Z,1010.19
2022-10-15T02:10:51.805Z,1010.29
2022-10-15T02:11:22.750Z,1010.29
2022-10-15T02:11:53.951Z,1009.99
2022-10-15T02:12:25.176Z,1009.99
2022-10-15T02:12:56.079Z,1010.19
2022-10-15T02:13:44.392Z,1010.19
2022-10-15T02:13:59.663Z,1009.99
2022-10-15T02:14:30.114Z,1009.99
2022-10-15T02:15:02.096Z,1009.99
2022-10-15T02:15:31.874Z,1009.99
2022-10-15T02:16:02.305Z,1010.09
2022-10-15T02:16:32.839Z,1010.09
2022-10-15T02:17:04.092Z,1010.19
2022-10-15T02:17:34.826Z,1010.19
2022-10-15T02:18:05.861Z,1010.09
2022-10-15T02:18:36.994Z,1010.09
2022-10-15T02:19:07.996Z,1009.89
2022-10-15T02:20:12.136Z,1010.09
2022-10-15T02:21:11.771Z,1010.19
2022-10-15T02:22:14.306Z,1009.99
2022-10-15T02:23:03.339Z,1009.89
2022-10-15T02:23:16.701Z,1009.89
2022-10-15T02:23:46.815Z,1009.89
2022-10-15T02:24:20.366Z,1009.89
2022-10-15T02:24:54.561Z,1009.89
2022-10-15T02:25:21.651Z,1009.99
2022-10-15T02:25:51.741Z,1009.99
2022-10-15T02:26:21.760Z,1009.99
2022-10-15T02:26:52.810Z,1009.68
2022-10-15T02:27:24.173Z,1009.68
2022-10-15T02:27:55.138Z,1009.68
2022-10-15T02:28:25.762Z,1009.68
2022-10-15T02:28:58.178Z,1009.89
2022-10-15T02:29:30.605Z,1009.89
2022-10-15T02:30:02.112Z,1009.99
2022-10-15T02:30:32.280Z,1009.99
2022-10-15T02:31:04.651Z,1009.79
2022-10-15T02:31:32.227Z,1009.79
2022-10-15T02:32:22.445Z,1009.99
2022-10-15T02:32:34.670Z,1009.99
2022-10-15T02:33:05.503Z,1009.99
2022-10-15T02:33:36.460Z,1009.99
2022-10-15T02:34:07.774Z,1009.99
2022-10-15T02:34:40.599Z,1009.99
2022-10-15T02:35:11.476Z,1009.99
2022-10-15T02:35:41.447Z,1009.99
2022-10-15T02:36:11.467Z,1009.99
2022-10-15T02:36:42.356Z,1009.99
2022-10-15T02:37:13.629Z,1009.89
2022-10-15T02:37:43.724Z,1009.89
2022-10-15T02:38:15.486Z,1009.79
2022-10-15T02:38:45.987Z,1009.79
2022-10-15T02:39:17.103Z,1009.79
2022-10-15T02:39:50.586Z,1009.79
2022-10-15T02:40:21.978Z,1009.99
2022-10-15T02:40:49.873Z,1009.99
2022-10-15T02:41:21.757Z,1009.99
2022-10-15T02:42:02.386Z,1009.89
2022-10-15T02:42:53.933Z,1009.99
2022-10-15T02:43:24.840Z,1009.99
2022-10-15T02:43:56.555Z,1009.99
2022-10-15T02:44:27.214Z,1009.99
2022-10-15T02:45:01.496Z,1009.99
2022-10-15T02:45:31.477Z,1009.99
2022-10-15T02:46:02.175Z,1009.68
2022-10-15T02:46:32.028Z,1009.68
2022-10-15T02:47:02.305Z,1009.99
2022-10-15T02:47:32.999Z,1009.99
2022-10-15T02:48:04.053Z,1009.89
2022-10-15T02:48:34.973Z,1009.89
2022-10-15T02:49:06.324Z,1009.99
2022-10-15T02:49:37.163Z,1009.99
2022-10-15T02:50:09.111Z,1009.99
2022-10-15T02:50:41.089Z,1009.99
2022-10-15T02:51:12.263Z,1009.89
2022-10-15T02:51:42.292Z,1009.89
2022-10-15T02:52:12.471Z,1009.79
2022-10-15T02:52:43.237Z,1009.79
2022-10-15T02:53:14.446Z,1009.89
2022-10-15T02:53:45.238Z,1009.89
2022-10-15T02:54:16.470Z,1009.79
2022-10-15T02:54:46.997Z,1009.79
2022-10-15T02:55:22.093Z,1009.89
2022-10-15T02:55:51.513Z,1009.89
2022-10-15T02:56:22.035Z,1009.99
2022-10-15T02:56:51.936Z,1009.79
2022-10-15T02:57:22.995Z,1009.79
2022-10-15T02:57:53.474Z,1009.68
2022-10-15T02:58:25.017Z,1009.68
2022-10-15T02:58:55.657Z,1009.79
2022-10-15T02:59:26.758Z,1009.79
2022-10-15T02:59:57.209Z,1009.79
2022-10-15T03:00:31.479Z,1009.79
2022-10-15T03:01:01.614Z,1009.79
2022-10-15T03:01:32.620Z,1009.79
2022-10-15T03:02:33.049Z,1009.99
2022-10-15T03:03:03.917Z,1009.89
2022-10-15T03:03:34.209Z,1009.89
2022-10-15T03:04:05.959Z,1009.99
2022-10-15T03:04:36.157Z,1009.99
2022-10-15T03:05:07.264Z,1009.99
2022-10-15T03:05:41.127Z,1009.99
2022-10-15T03:06:11.773Z,1009.89
2022-10-15T03:06:42.942Z,1009.89
2022-10-15T03:07:12.012Z,1010.09
2022-10-15T03:07:43.247Z,1010.09
2022-10-15T03:08:13.263Z,1009.89
2022-10-15T03:08:44.080Z,1009.89
2022-10-15T03:09:15.307Z,1010.09
2022-10-15T03:09:45.962Z,1010.09
2022-10-15T03:10:17.223Z,1009.89
2022-10-15T03:10:49.750Z,1009.89
2022-10-15T03:11:21.287Z,1009.89
2022-10-15T03:11:53.364Z,1009.99
2022-10-15T03:12:23.436Z,1009.99
2022-10-15T03:12:52.666Z,1009.79
2022-10-15T03:13:23.445Z,1009.79
2022-10-15T03:13:53.861Z,1009.89
2022-10-15T03:14:25.089Z,1009.89
2022-10-15T03:14:56.510Z,1009.89
2022-10-15T03:15:27.849Z,1009.89
2022-10-15T03:15:59.990Z,1010.09
2022-10-15T03:16:31.994Z,1010.09
2022-10-15T03:17:17.310Z,1009.79
2022-10-15T03:17:31.667Z,1009.79
2022-10-15T03:18:03.209Z,1009.79
2022-10-15T03:18:36.761Z,1009.79
2022-10-15T03:19:04.457Z,1009.89
2022-10-15T03:19:35.091Z,1009.89
2022-10-15T03:20:06.540Z,1009.99
2022-10-15T03:20:43.639Z,1009.99
2022-10-15T03:21:09.822Z,1009.89
2022-10-15T03:21:42.359Z,1009.89
2022-10-15T03:22:13.400Z,1009.89
2022-10-15T03:23:00.306Z,1009.99
2022-10-15T03:23:13.584Z,1009.99
2022-10-15T03:23:43.684Z,1009.99
2022-10-15T03:24:14.961Z,1009.89
2022-10-15T03:24:45.312Z,1009.89
2022-10-15T03:25:17.469Z,1009.79
2022-10-15T03:26:06.671Z,1009.79
2022-10-15T03:26:24.744Z,1009.79
2022-10-15T03:26:51.281Z,1009.79
2022-10-15T03:27:22.458Z,1009.89
2022-10-15T03:27:52.989Z,1009.79
2022-10-15T03:28:23.031Z,1009.79
2022-10-15T03:28:53.707Z,1009.79
2022-10-15T03:29:24.619Z,1009.79
2022-10-15T03:29:55.491Z,1009.79
2022-10-15T03:30:27.025Z,1009.79
2022-10-15T03:30:57.587Z,1009.99
2022-10-15T03:31:28.190Z,1009.99
2022-10-15T03:32:01.945Z,1009.89
2022-10-15T03:32:34.332Z,1009.89
2022-10-15T03:33:03.792Z,1009.79
2022-10-15T03:33:33.116Z,1009.79
2022-10-15T03:34:04.532Z,1009.79
2022-10-15T03:34:35.740Z,1009.79
2022-10-15T03:35:06.171Z,1009.68
2022-10-15T03:35:37.633Z,1009.68
2022-10-15T03:36:07.039Z,1009.89
2022-10-15T03:36:37.861Z,1009.89
2022-10-15T03:37:12.675Z,1009.79
2022-10-15T03:37:42.978Z,1009.79
2022-10-15T03:38:13.128Z,1009.79
2022-10-15T03:39:00.824Z,1009.68
2022-10-15T03:39:13.269Z,1009.68
2022-10-15T03:39:44.332Z,1009.68
2022-10-15T03:40:17.156Z,1009.89
2022-10-15T03:40:46.861Z,1009.89
2022-10-15T03:41:16.950Z,1009.89
2022-10-15T03:41:48.235Z,1009.89
2022-10-15T03:42:22.847Z,1009.68
2022-10-15T03:42:52.308Z,1009.89
2022-10-15T03:43:41.861Z,1009.89
2022-10-15T03:43:53.528Z,1009.79
2022-10-15T03:44:23.696Z,1009.79
2022-10-15T03:44:54.294Z,1009.68
2022-10-15T03:45:25.788Z,1009.68
2022-10-15T03:45:56.254Z,1009.79
2022-10-15T03:46:27.733Z,1009.79
2022-10-15T03:46:58.360Z,1009.89
2022-10-15T03:47:33.803Z,1009.89
2022-10-15T03:48:02.528Z,1009.79
2022-10-15T03:48:33.609Z,1009.79
2022-10-15T03:49:03.468Z,1009.68
2022-10-15T03:49:33.893Z,1009.68
2022-10-15T03:50:05.197Z,1009.89
2022-10-15T03:50:40.432Z,1009.89
2022-10-15T03:51:06.494Z,1009.58
2022-10-15T03:51:37.079Z,1009.58
2022-10-15T03:52:07.879Z,1009.89
2022-10-15T03:52:40.047Z,1009.89
2022-10-15T03:53:13.603Z,1009.79
2022-10-15T03:53:44.043Z,1009.79
2022-10-15T03:54:12.637Z,1009.79
2022-10-15T03:54:44.138Z,1009.79
2022-10-15T03:55:15.276Z,1009.89
2022-10-15T03:55:45.340Z,1009.89
2022-10-15T03:56:16.459Z,1009.89
2022-10-15T03:57:06.657Z,1009.79
2022-10-15T03:57:18.853Z,1009.79
2022-10-15T03:57:51.356Z,1009.79
2022-10-15T03:58:23.595Z,1009.79
2022-10-15T03:58:52.751Z,1009.68
2022-10-15T03:59:22.985Z,1009.68
2022-10-15T03:59:54.376Z,1009.68
2022-10-15T04:00:25.983Z,1009.68
2022-10-15T04:00:55.150Z,1009.68
2022-10-15T04:01:26.365Z,1009.68
2022-10-15T04:01:57.188Z,1009.79
2022-10-15T04:02:28.540Z,1009.79
2022-10-15T04:02:59.254Z,1009.79
2022-10-15T04:03:32.510Z,1009.79
2022-10-15T04:04:01.557Z,1009.79
2022-10-15T04:04:32.971Z,1009.79
2022-10-15T04:05:03.943Z,1009.58
2022-10-15T04:05:34.837Z,1009.58
2022-10-15T04:06:36.745Z,1009.51
2022-10-15T04:07:38.411Z,1009.58
2022-10-15T04:08:12.577Z,1009.68
2022-10-15T04:08:42.250Z,1009.68
2022-10-15T04:09:12.350Z,1009.68
2022-10-15T04:09:43.024Z,1009.68
2022-10-15T04:10:16.420Z,1009.68
2022-10-15T04:10:45.804Z,1009.68
2022-10-15T04:11:15.557Z,1009.68
2022-10-15T04:11:46.667Z,1009.68
2022-10-15T04:12:18.165Z,1009.68
2022-10-15T04:12:50.481Z,1009.68
2022-10-15T04:13:19.542Z,1009.68
2022-10-15T04:13:50.056Z,1009.68
2022-10-15T04:14:21.350Z,1009.68
2022-10-15T04:14:52.005Z,1009.79
2022-10-15T04:15:23.699Z,1009.79
2022-10-15T04:15:54.252Z,1009.68
2022-10-15T04:16:25.165Z,1009.68
2022-10-15T04:16:56.789Z,1009.79
2022-10-15T04:17:29.232Z,1009.79
2022-10-15T04:17:59.325Z,1009.79
2022-10-15T04:18:31.706Z,1009.79
2022-10-15T04:19:00.010Z,1009.79
2022-10-15T04:19:31.660Z,1009.79
2022-10-15T04:20:04.540Z,1009.68
2022-10-15T04:20:34.020Z,1009.68
2022-10-15T04:21:04.973Z,1009.89
2022-10-15T04:22:07.005Z,1009.68
2022-10-15T04:22:37.577Z,1009.68
2022-10-15T04:23:11.193Z,1009.68
2022-10-15T04:23:41.032Z,1009.68
2022-10-15T04:24:43.948Z,1009.68
2022-10-15T04:25:13.233Z,1009.89
2022-10-15T04:25:43.420Z,1009.89
2022-10-15T04:26:15.045Z,1009.68
2022-10-15T04:26:46.234Z,1009.68
2022-10-15T04:27:16.646Z,1009.99
2022-10-15T04:27:50.426Z,1009.99
2022-10-15T04:28:20.534Z,1009.68
2022-10-15T04:28:51.931Z,1009.79
2022-10-15T04:29:21.588Z,1009.79
2022-10-15T04:29:52.196Z,1009.58
2022-10-15T04:30:34.437Z,1009.58
2022-10-15T04:30:53.767Z,1009.79
2022-10-15T04:31:24.307Z,1009.79
2022-10-15T04:31:55.284Z,1009.79
2022-10-15T04:32:26.846Z,1009.79
2022-10-15T04:32:58.961Z,1009.79
2022-10-15T04:33:30.344Z,1009.79
2022-10-15T04:34:00.893Z,1009.79
2022-10-15T04:34:30.872Z,1009.79
2022-10-15T04:35:02.146Z,1009.89
2022-10-15T04:35:35.354Z,1009.89
2022-10-15T04:36:04.981Z,1009.58
2022-10-15T04:36:35.133Z,1009.58
2022-10-15T04:37:13.562Z,1009.79
2022-10-15T04:37:38.782Z,1009.79
2022-10-15T04:38:10.133Z,1009.99
2022-10-15T04:38:40.967Z,1009.99
2022-10-15T04:39:13.720Z,1009.58
2022-10-15T04:39:43.288Z,1009.58
2022-10-15T04:40:13.455Z,1009.68
2022-10-15T04:40:43.914Z,1009.68
2022-10-15T04:41:13.880Z,1009.79
2022-10-15T04:42:15.833Z,1009.79
2022-10-15T04:42:46.273Z,1009.79
2022-10-15T04:43:21.031Z,1009.89
2022-10-15T04:43:51.019Z,1009.89
2022-10-15T04:44:22.006Z,1009.89
2022-10-15T04:44:52.117Z,1009.58
2022-10-15T04:45:24.899Z,1009.58
2022-10-15T04:45:53.987Z,1009.79
2022-10-15T04:46:24.002Z,1009.79
2022-10-15T04:46:54.481Z,1009.79
2022-10-15T04:47:25.775Z,1009.79
2022-10-15T04:47:59.043Z,1009.79
2022-10-15T04:48:27.406Z,1009.79
2022-10-15T04:49:01.458Z,1009.99
2022-10-15T04:49:32.574Z,1009.99
2022-10-15T04:50:03.115Z,1009.89
2022-10-15T04:50:33.933Z,1009.89
2022-10-15T04:51:03.037Z,1009.89
2022-10-15T04:51:34.242Z,1009.89
2022-10-15T04:52:04.900Z,1009.89
2022-10-15T04:52:35.991Z,1009.89
2022-10-15T04:53:07.382Z,1009.89
2022-10-15T04:53:37.873Z,1009.89
2022-10-15T04:54:10.902Z,1009.68
2022-10-15T04:54:42.668Z,1009.68
2022-10-15T04:55:14.763Z,1009.89
2022-10-15T04:55:43.718Z,1009.89
2022-10-15T04:56:13.239Z,1009.79
2022-10-15T04:56:43.936Z,1009.79
2022-10-15T04:57:14.665Z,1009.89
2022-10-15T04:57:46.229Z,1009.89
2022-10-15T04:58:17.116Z,1009.89
2022-10-15T04:58:51.300Z,1009.89
2022-10-15T04:59:19.898Z,1009.79
2022-10-15T04:59:55.393Z,1009.89
2022-10-15T05:00:23.763Z,1009.89
2022-10-15T05:00:52.557Z,1009.89
2022-10-15T05:01:24.843Z,1009.89
2022-10-15T05:01:53.866Z,1009.99
2022-10-15T05:02:24.665Z,1009.99
2022-10-15T05:02:55.576Z,1009.99
2022-10-15T05:03:27.206Z,1009.99
2022-10-15T05:03:58.265Z,1010.09
2022-10-15T05:04:28.178Z,1010.09
2022-10-15T05:05:01.039Z,1010.19
2022-10-15T05:05:31.556Z,1010.19
2022-10-15T05:06:02.125Z,1009.99
2022-10-15T05:06:32.733Z,1009.99
2022-10-15T05:07:14.491Z,1009.89
2022-10-15T05:07:57.093Z,1009.89
2022-10-15T05:08:05.788Z,1009.89
2022-10-15T05:08:36.979Z,1009.89
2022-10-15T05:09:07.327Z,1009.99
2022-10-15T05:09:55.433Z,1009.68
2022-10-15T05:10:11.122Z,1009.68
2022-10-15T05:25:44.452Z,1009.68
2022-10-15T05:31:23.296Z,1009.99
2022-10-15T05:32:02.547Z,1009.79
2022-10-15T05:32:26.927Z,1009.79
2022-10-15T05:33:23.393Z,1009.89
2022-10-15T05:35:26.558Z,1009.68
2022-10-15T05:36:01.031Z,1010.09
2022-10-15T05:36:32.225Z,1010.09
2022-10-15T05:37:33.197Z,1009.99
2022-10-15T05:38:29.034Z,1009.79
2022-10-15T05:38:34.657Z,1009.79
2022-10-15T05:39:05.516Z,1009.89
2022-10-15T05:40:21.228Z,1009.89
2022-10-15T05:40:38.523Z,1009.79
2022-10-15T05:41:10.733Z,1009.89
2022-10-15T05:41:42.285Z,1009.89
2022-10-15T05:42:14.150Z,1009.79
2022-10-15T05:42:45.419Z,1009.79
2022-10-15T05:43:22.985Z,1009.79
2022-10-15T05:43:55.433Z,1009.79
2022-10-15T05:44:23.324Z,1009.68
2022-10-15T05:44:48.403Z,1009.68
2022-10-15T05:45:41.447Z,1009.79
2022-10-15T05:46:21.123Z,1009.89
2022-10-15T05:46:53.238Z,1009.89
2022-10-15T05:47:27.313Z,1009.89
2022-10-15T05:48:21.889Z,1009.89
2022-10-15T05:48:54.732Z,1009.99
2022-10-15T05:49:25.742Z,1009.99
2022-10-15T05:49:56.756Z,1010.09
2022-10-15T05:50:32.773Z,1010.09
2022-10-15T05:51:05.770Z,1009.99
2022-10-15T05:51:30.926Z,1009.99
2022-10-15T05:55:00.157Z,1009.99
2022-10-15T05:55:07.976Z,1009.79
2022-10-15T05:55:37.431Z,1009.79
2022-10-15T05:56:25.642Z,1010.19
2022-10-15T05:56:46.875Z,1010.19
2022-10-15T05:57:30.342Z,1010.19
2022-10-15T05:57:44.194Z,1010.19
2022-10-15T05:58:24.407Z,1010.09
2022-10-15T05:58:53.224Z,1010.09
2022-10-15T05:59:15.003Z,1010.19
2022-10-15T05:59:48.051Z,1010.19
2022-10-15T06:00:26.253Z,1009.99
2022-10-15T06:00:47.863Z,1009.99
2022-10-15T06:01:18.841Z,1010.09
2022-10-15T06:01:49.986Z,1010.09
2022-10-15T06:02:23.432Z,1010.09
2022-10-15T06:03:20.629Z,1010.19
2022-10-15T06:03:53.924Z,1010.19
2022-10-15T06:04:36.038Z,1010.09
2022-10-15T06:04:56.081Z,1010.09
2022-10-15T06:05:27.985Z,1010.09
2022-10-15T06:05:57.959Z,1010.19
2022-10-15T06:06:29.101Z,1010.19
2022-10-15T06:07:00.019Z,1010.19
2022-10-15T06:07:33.365Z,1010.19
2022-10-15T06:08:03.955Z,1010.29
2022-10-15T06:08:33.903Z,1010.29
2022-10-15T06:09:04.187Z,1010.09
2022-10-15T06:09:35.293Z,1010.09
2022-10-15T06:10:06.663Z,1010.50
2022-10-15T06:10:36.938Z,1010.50
2022-10-15T06:11:09.695Z,1010.40
2022-10-15T06:11:42.930Z,1010.40
2022-10-15T06:12:11.230Z,1010.40
2022-10-15T06:12:44.276Z,1010.40
2022-10-15T06:13:16.836Z,1010.29
2022-10-15T06:13:44.277Z,1010.29
2022-10-15T06:14:15.393Z,1010.40
2022-10-15T06:14:44.707Z,1010.40
2022-10-15T06:15:16.757Z,1010.29
2022-10-15T06:16:11.161Z,1010.29
2022-10-15T06:16:21.126Z,1010.50
2022-10-15T06:16:49.214Z,1010.50
2022-10-15T06:17:21.199Z,1010.29
2022-10-15T06:17:53.285Z,1010.50
2022-10-15T06:18:24.520Z,1010.50
2022-10-15T06:18:53.491Z,1010.40
2022-10-15T06:19:24.818Z,1010.40
2022-10-15T06:19:55.641Z,1010.40
2022-10-15T06:20:27.214Z,1010.40
2022-10-15T06:20:57.338Z,1010.60
2022-10-15T06:21:28.426Z,1010.60
2022-10-15T06:21:59.184Z,1010.40
2022-10-15T06:22:31.689Z,1010.40
2022-10-15T06:23:03.867Z,1010.29
2022-10-15T06:23:33.902Z,1010.29
2022-10-15T06:24:07.676Z,1010.29
2022-10-15T06:24:35.287Z,1010.29
2022-10-15T06:25:36.605Z,1010.29
2022-10-15T06:26:07.201Z,1010.40
2022-10-15T06:26:37.684Z,1010.40
2022-10-15T06:27:10.627Z,1010.29
2022-10-15T06:27:40.470Z,1010.29
2022-10-15T06:28:13.600Z,1010.40
2022-10-15T06:28:43.886Z,1010.40
2022-10-15T06:29:14.785Z,1010.50
2022-10-15T06:29:45.797Z,1010.50
2022-10-15T06:30:18.255Z,1010.60
2022-10-15T06:30:46.741Z,1010.60
2022-10-15T06:31:17.879Z,1010.60
2022-10-15T06:31:48.635Z,1010.60
2022-10-15T06:32:19.399Z,1010.70
2022-10-15T06:32:50.013Z,1010.50
2022-10-15T06:33:24.765Z,1010.50
2022-10-15T06:33:54.160Z,1010.50
2022-10-15T06:34:24.689Z,1010.50
2022-10-15T06:34:55.929Z,1010.40
2022-10-15T06:35:27.113Z,1010.40
2022-10-15T06:35:56.458Z,1010.19
2022-10-15T06:36:27.340Z,1010.19
2022-10-15T06:36:58.098Z,1010.50
2022-10-15T06:37:29.649Z,1010.50
2022-10-15T06:38:03.159Z,1010.40
2022-10-15T06:38:33.098Z,1010.40
2022-10-15T06:39:04.554Z,1010.50
2022-10-15T06:39:35.090Z,1010.50
2022-10-15T06:40:06.364Z,1010.40
2022-10-15T06:40:36.028Z,1010.40
2022-10-15T06:41:06.725Z,1010.40
2022-10-15T06:41:38.161Z,1010.40
2022-10-15T06:42:08.957Z,1010.40
2022-10-15T06:42:39.971Z,1010.40
2022-10-15T06:43:11.254Z,1010.50
2022-10-15T06:43:42.739Z,1010.50
2022-10-15T06:44:15.361Z,1010.40
2022-10-15T06:44:45.365Z,1010.40
2022-10-15T06:45:19.429Z,1010.40
2022-10-15T06:45:45.409Z,1010.40
2022-10-15T06:46:16.592Z,1010.40
2022-10-15T06:46:47.550Z,1010.40
2022-10-15T06:47:20.063Z,1010.50
2022-10-15T06:47:49.052Z,1010.50
2022-10-15T06:48:21.186Z,1010.40
2022-10-15T06:48:53.558Z,1010.60
2022-10-15T06:49:24.558Z,1010.60
2022-10-15T06:49:55.169Z,1010.60
2022-10-15T06:50:25.895Z,1010.60
2022-10-15T06:50:56.165Z,1010.40
2022-10-15T06:52:01.082Z,1010.60
2022-10-15T06:52:28.495Z,1010.60
2022-10-15T06:53:30.284Z,1010.40
2022-10-15T06:54:04.679Z,1010.70
2022-10-15T06:54:34.559Z,1010.70
2022-10-15T06:55:05.203Z,1010.60
2022-10-15T06:55:35.515Z,1010.60
2022-10-15T06:56:05.953Z,1010.50
2022-10-15T06:56:36.368Z,1010.50
2022-10-15T06:57:08.899Z,1010.50
2022-10-15T06:57:38.376Z,1010.50
2022-10-15T06:58:09.869Z,1010.60
2022-10-15T06:58:41.266Z,1010.60
2022-10-15T06:59:14.109Z,1010.70
2022-10-15T06:59:44.535Z,1010.70